createdAt,value
2022-12-08T00:00:54.891Z,16.40
2022-12-08T00:03:25.415Z,16.30
2022-12-08T00:06:15.461Z,15.80
2022-12-08T00:09:05.679Z,16.40
2022-12-08T00:11:35.808Z,13.60
2022-12-08T00:14:06.085Z,15.70
2022-12-08T00:16:36.350Z,17.10
2022-12-08T00:19:06.912Z,17.70
2022-12-08T00:21:36.959Z,16.20
2022-12-08T00:24:07.377Z,18.60
2022-12-08T00:26:38.727Z,19.40
2022-12-08T00:29:14.452Z,17.80
2022-12-08T00:31:48.410Z,17.30
2022-12-08T00:34:18.944Z,15.80
2022-12-08T00:36:49.353Z,15.10
2022-12-08T00:39:19.795Z,16.10
2022-12-08T00:42:09.800Z,18.80
2022-12-08T00:44:40.774Z,19.60
2022-12-08T00:47:11.013Z,16.30
2022-12-08T00:49:41.223Z,15.60
2022-12-08T00:52:13.077Z,15.80
2022-12-08T00:54:43.019Z,11.90
2022-12-08T00:57:14.693Z,13.90
2022-12-08T00:59:44.730Z,27.80
2022-12-08T01:02:15.275Z,14.10
2022-12-08T01:04:45.708Z,25.20
2022-12-08T01:07:14.714Z,19.70
2022-12-08T01:09:45.966Z,14.10
2022-12-08T01:12:15.783Z,14.30
2022-12-08T01:14:45.957Z,10.70
2022-12-08T01:17:15.730Z,12.30
2022-12-08T01:19:46.623Z,12.80
2022-12-08T01:22:16.943Z,11.50
2022-12-08T01:24:47.435Z,10.40
2022-12-08T01:27:17.277Z,11.00
2022-12-08T01:29:48.151Z,7.60
2022-12-08T01:32:18.044Z,10.50
2022-12-08T01:34:48.517Z,24.80
2022-12-08T01:37:18.920Z,19.30
2022-12-08T01:39:49.008Z,29.50
2022-12-08T01:42:23.662Z,12.60
2022-12-08T01:45:04.727Z,11.20
2022-12-08T01:47:45.913Z,11.10
2022-12-08T01:50:18.516Z,10.70
2022-12-08T01:52:56.008Z,10.70
2022-12-08T01:58:12.952Z,10.10
2022-12-08T02:00:43.900Z,8.30
2022-12-08T02:03:20.613Z,9.20
2022-12-08T02:05:53.290Z,9.40
2022-12-08T02:08:24.695Z,9.20
2022-12-08T02:10:55.192Z,12.50
2022-12-08T02:13:26.359Z,12.20
2022-12-08T02:16:19.364Z,12.50
2022-12-08T02:19:29.126Z,12.00
2022-12-08T02:22:11.689Z,12.30
2022-12-08T02:24:46.626Z,6.90
2022-12-08T02:27:26.626Z,10.50
2022-12-08T02:30:11.875Z,33.70
2022-12-08T02:32:52.080Z,17.60
2022-12-08T02:35:40.908Z,11.00
2022-12-08T02:38:24.019Z,7.60
2022-12-08T02:41:17.270Z,7.00
2022-12-08T02:44:17.004Z,10.80
2022-12-08T02:46:59.968Z,13.20
2022-12-08T02:49:34.595Z,7.40
2022-12-08T02:52:13.933Z,8.00
2022-12-08T02:55:06.742Z,9.70
2022-12-08T02:57:46.124Z,8.80
2022-12-08T03:00:19.601Z,8.30
2022-12-08T03:03:27.187Z,8.20
2022-12-08T03:06:22.049Z,6.80
2022-12-08T03:08:55.895Z,8.10
2022-12-08T03:11:33.820Z,8.00
2022-12-08T03:14:07.582Z,6.70
2022-12-08T03:16:41.931Z,5.50
2022-12-08T03:19:38.248Z,10.50
2022-12-08T03:22:11.394Z,11.80
2022-12-08T03:24:44.622Z,15.40
2022-12-08T03:27:25.872Z,13.80
2022-12-08T03:29:58.103Z,11.20
2022-12-08T03:32:34.547Z,9.70
2022-12-08T03:35:11.785Z,11.70
2022-12-08T03:37:43.371Z,13.30
2022-12-08T03:40:17.320Z,13.00
2022-12-08T03:42:46.976Z,11.50
2022-12-08T03:45:17.148Z,8.90
2022-12-08T03:47:47.446Z,6.60
2022-12-08T03:50:17.602Z,4.80
2022-12-08T03:52:47.805Z,4.80
2022-12-08T03:55:17.953Z,5.00
2022-12-08T03:57:47.717Z,5.20
2022-12-08T04:00:18.156Z,5.30
2022-12-08T04:02:48.248Z,4.70
2022-12-08T04:05:18.422Z,7.70
2022-12-08T04:07:48.653Z,6.00
2022-12-08T04:10:18.772Z,6.90
2022-12-08T04:12:48.808Z,6.20
2022-12-08T04:15:17.664Z,5.20
2022-12-08T04:17:48.686Z,5.20
2022-12-08T04:20:18.752Z,6.50
2022-12-08T04:22:47.859Z,9.80
2022-12-08T04:25:17.951Z,12.60
2022-12-08T04:27:48.004Z,18.90
2022-12-08T04:30:18.203Z,15.00
2022-12-08T04:32:48.342Z,9.00
2022-12-08T04:35:18.404Z,14.50
2022-12-08T04:37:48.682Z,13.90
2022-12-08T04:40:18.996Z,11.10
2022-12-08T04:42:49.010Z,13.70
2022-12-08T04:45:19.210Z,18.30
2022-12-08T04:47:48.120Z,21.00
2022-12-08T04:50:19.736Z,23.00
2022-12-08T04:52:50.060Z,19.30
2022-12-08T04:55:20.120Z,15.40
2022-12-08T04:57:49.858Z,29.20
2022-12-08T05:00:19.931Z,21.70
2022-12-08T05:02:50.087Z,18.10
2022-12-08T05:05:20.177Z,18.90
2022-12-08T05:07:50.419Z,17.50
2022-12-08T05:10:19.415Z,17.40
2022-12-08T05:12:49.456Z,18.20
2022-12-08T05:15:19.613Z,20.00
2022-12-08T05:17:49.725Z,21.10
2022-12-08T05:20:18.769Z,21.00
2022-12-08T05:22:48.918Z,22.50
2022-12-08T05:25:18.002Z,26.00
2022-12-08T05:27:48.024Z,27.70
2022-12-08T05:30:18.531Z,29.60
2022-12-08T05:32:48.811Z,25.00
2022-12-08T05:35:18.941Z,22.10
2022-12-08T05:37:48.991Z,17.70
2022-12-08T05:40:19.353Z,37.10
2022-12-08T05:42:49.681Z,44.80
2022-12-08T05:45:19.935Z,26.30
2022-12-08T05:47:50.425Z,22.20
2022-12-08T05:50:20.687Z,22.50
2022-12-08T05:52:50.667Z,45.60
2022-12-08T05:55:20.959Z,54.80
2022-12-08T05:57:51.395Z,49.50
2022-12-08T06:00:22.565Z,30.80
2022-12-08T06:02:52.153Z,36.30
2022-12-08T06:05:22.503Z,33.10
2022-12-08T06:07:52.918Z,31.30
2022-12-08T06:10:22.993Z,36.00
2022-12-08T06:12:53.379Z,39.40
2022-12-08T06:15:23.674Z,42.30
2022-12-08T06:17:53.740Z,46.50
2022-12-08T06:20:24.064Z,48.60
2022-12-08T06:22:55.897Z,53.00
2022-12-08T06:25:26.329Z,39.40
2022-12-08T06:27:56.328Z,53.20
2022-12-08T06:30:27.754Z,40.40
2022-12-08T06:32:58.196Z,41.90
2022-12-08T06:35:28.144Z,40.30
2022-12-08T06:37:58.281Z,44.60
2022-12-08T06:40:28.745Z,43.50
2022-12-08T06:43:00.641Z,41.00
2022-12-08T06:45:30.447Z,33.60
2022-12-08T06:48:03.148Z,30.00
2022-12-08T06:50:35.464Z,29.60
2022-12-08T06:53:05.884Z,34.10
2022-12-08T06:55:58.900Z,37.20
2022-12-08T06:58:27.906Z,33.30
2022-12-08T07:00:58.545Z,32.00
2022-12-08T07:03:28.987Z,33.00
2022-12-08T07:06:04.062Z,48.30
2022-12-08T07:08:35.418Z,51.50
2022-12-08T07:11:09.854Z,52.00
2022-12-08T07:13:40.198Z,48.40
2022-12-08T07:16:10.643Z,43.10
2022-12-08T07:18:40.444Z,41.40
2022-12-08T07:21:12.531Z,50.10
2022-12-08T07:23:43.370Z,49.50
2022-12-08T07:26:14.379Z,39.20
2022-12-08T07:28:44.800Z,35.60
2022-12-08T07:31:26.092Z,40.90
2022-12-08T07:33:57.949Z,42.40
2022-12-08T07:36:28.148Z,37.60
2022-12-08T07:39:00.471Z,41.20
2022-12-08T07:41:30.729Z,39.00
2022-12-08T07:44:01.197Z,38.00
2022-12-08T07:46:31.738Z,141.20
2022-12-08T07:49:02.125Z,117.60
2022-12-08T07:51:32.648Z,65.30
2022-12-08T07:54:02.955Z,96.90
2022-12-08T07:56:32.013Z,66.50
2022-12-08T07:59:03.158Z,46.80
2022-12-08T08:01:35.253Z,44.50
2022-12-08T08:04:06.687Z,43.70
2022-12-08T08:06:36.714Z,36.60
2022-12-08T08:09:06.900Z,43.40
2022-12-08T08:11:36.666Z,66.60
2022-12-08T08:14:06.440Z,69.30
2022-12-08T08:16:38.619Z,35.80
2022-12-08T08:19:09.138Z,51.70
2022-12-08T08:21:46.627Z,36.00
2022-12-08T08:24:18.148Z,36.90
2022-12-08T08:26:47.101Z,33.90
2022-12-08T08:29:18.225Z,41.20
2022-12-08T08:31:48.997Z,27.70
2022-12-08T08:34:19.420Z,23.90
2022-12-08T08:36:48.685Z,28.40
2022-12-08T08:39:19.276Z,26.50
2022-12-08T08:41:49.269Z,18.50
2022-12-08T08:44:20.021Z,24.20
2022-12-08T08:46:50.482Z,18.60
2022-12-08T08:49:21.032Z,16.30
2022-12-08T08:51:52.341Z,17.00
2022-12-08T08:54:22.794Z,18.10
2022-12-08T08:56:53.303Z,16.50
2022-12-08T08:59:23.503Z,18.10
2022-12-08T09:01:54.051Z,15.00
2022-12-08T09:04:24.726Z,16.70
2022-12-08T09:06:54.775Z,16.10
2022-12-08T09:09:24.858Z,11.50
2022-12-08T09:11:56.065Z,12.90
2022-12-08T09:14:26.306Z,12.50
2022-12-08T09:16:56.430Z,12.30
2022-12-08T09:19:26.586Z,10.90
2022-12-08T09:21:56.709Z,11.90
2022-12-08T09:24:27.160Z,11.20
2022-12-08T09:26:57.443Z,13.20
2022-12-08T09:29:31.079Z,14.30
2022-12-08T09:32:05.202Z,15.20
2022-12-08T09:34:35.905Z,17.10
2022-12-08T09:37:06.746Z,14.90
2022-12-08T09:39:36.838Z,14.90
2022-12-08T09:42:07.856Z,13.90
2022-12-08T09:44:41.594Z,11.90
2022-12-08T09:47:35.987Z,11.30
2022-12-08T09:50:32.095Z,12.00
2022-12-08T09:53:15.512Z,11.60
2022-12-08T09:56:06.621Z,11.50
2022-12-08T09:58:50.751Z,11.30
2022-12-08T10:01:23.390Z,11.30
2022-12-08T10:03:55.307Z,11.50
2022-12-08T10:06:32.237Z,12.70
2022-12-08T10:09:12.582Z,12.10
2022-12-08T10:12:01.313Z,12.30
2022-12-08T10:14:52.646Z,12.20
2022-12-08T10:17:28.324Z,12.40
2022-12-08T10:20:14.163Z,11.60
2022-12-08T10:22:47.032Z,13.50
2022-12-08T10:25:31.596Z,13.50
2022-12-08T10:28:01.762Z,14.50
2022-12-08T10:30:32.876Z,14.10
2022-12-08T10:33:03.352Z,14.10
2022-12-08T10:35:56.579Z,15.20
2022-12-08T10:38:34.580Z,19.60
2022-12-08T10:41:18.440Z,20.30
2022-12-08T10:43:58.565Z,19.00
2022-12-08T10:46:30.603Z,24.50
2022-12-08T10:49:06.352Z,23.10
2022-12-08T10:51:39.595Z,22.00
2022-12-08T10:54:33.564Z,21.90
2022-12-08T10:57:05.936Z,24.10
2022-12-08T10:59:36.363Z,23.60
2022-12-08T11:02:19.107Z,27.00
2022-12-08T11:05:01.404Z,28.70
2022-12-08T11:07:32.595Z,30.30
2022-12-08T11:10:03.493Z,31.20
2022-12-08T11:12:33.888Z,33.60
2022-12-08T11:15:05.755Z,35.20
2022-12-08T11:17:45.512Z,38.00
2022-12-08T11:20:16.618Z,38.00
2022-12-08T11:22:55.654Z,38.50
2022-12-08T11:25:27.523Z,40.20
2022-12-08T11:28:02.398Z,40.60
2022-12-08T11:30:39.579Z,41.00
2022-12-08T11:33:16.341Z,41.90
2022-12-08T11:35:54.625Z,42.00
2022-12-08T11:38:26.751Z,42.40
2022-12-08T11:41:15.545Z,43.20
2022-12-08T11:44:11.175Z,43.20
2022-12-08T11:47:02.983Z,44.50
2022-12-08T11:49:40.296Z,43.80
2022-12-08T11:52:25.200Z,41.60
2022-12-08T11:55:20.003Z,42.00
2022-12-08T11:57:52.278Z,39.00
2022-12-08T12:00:22.499Z,39.90
2022-12-08T12:03:05.133Z,38.40
2022-12-08T12:06:18.502Z,38.20
2022-12-08T12:09:38.947Z,37.30
2022-12-08T12:12:53.720Z,36.50
2022-12-08T12:15:43.188Z,38.10
2022-12-08T12:18:32.967Z,37.40
2022-12-08T12:21:11.963Z,34.70
2022-12-08T12:23:48.517Z,35.60
2022-12-08T12:26:39.291Z,33.70
2022-12-08T12:29:18.250Z,38.00
2022-12-08T12:32:02.573Z,35.80
2022-12-08T12:34:52.609Z,36.40
2022-12-08T12:37:37.433Z,33.40
2022-12-08T12:40:20.903Z,32.00
2022-12-08T12:42:56.474Z,33.70
2022-12-08T12:45:35.030Z,32.60
2022-12-08T12:48:06.003Z,33.30
2022-12-08T12:50:42.843Z,34.10
2022-12-08T12:53:19.471Z,35.00
2022-12-08T12:55:55.934Z,34.40
2022-12-08T12:58:31.873Z,33.20
2022-12-08T13:01:35.206Z,35.60
2022-12-08T13:04:08.254Z,35.40
2022-12-08T13:06:49.934Z,35.10
2022-12-08T13:09:37.372Z,35.40
2022-12-08T13:12:13.259Z,36.80
2022-12-08T13:14:51.522Z,36.50
2022-12-08T13:17:31.286Z,36.50
2022-12-08T13:20:05.783Z,37.50
2022-12-08T13:23:02.948Z,34.00
2022-12-08T13:25:48.410Z,34.50
2022-12-08T13:28:28.937Z,34.30
2022-12-08T13:31:01.278Z,34.80
2022-12-08T13:33:40.250Z,33.80
2022-12-08T13:36:27.288Z,35.80
2022-12-08T13:38:59.418Z,35.50
2022-12-08T13:41:53.988Z,34.80
2022-12-08T13:45:18.719Z,34.60
2022-12-08T13:47:59.579Z,36.40
2022-12-08T13:54:48.516Z,36.50
2022-12-08T13:57:02.398Z,36.00
2022-12-08T13:59:28.952Z,37.60
2022-12-08T14:02:35.512Z,37.90
2022-12-08T14:05:34.865Z,36.80
2022-12-08T14:07:57.642Z,37.80
2022-12-08T14:10:32.410Z,37.70
2022-12-08T14:13:07.175Z,36.70
2022-12-08T14:15:39.462Z,37.50
2022-12-08T14:18:28.117Z,38.40
2022-12-08T14:21:22.382Z,37.50
2022-12-08T14:23:54.163Z,38.10
2022-12-08T14:26:24.511Z,37.90
2022-12-08T14:29:36.667Z,39.00
2022-12-08T14:32:40.134Z,37.80
2022-12-08T14:35:10.872Z,37.50
2022-12-08T14:37:46.950Z,35.70
2022-12-08T14:40:23.026Z,36.40
2022-12-08T14:43:20.227Z,36.20
2022-12-08T14:45:53.726Z,35.40
2022-12-08T14:48:43.311Z,36.90
2022-12-08T14:51:27.920Z,38.00
2022-12-08T14:54:09.534Z,39.00
2022-12-08T14:56:50.832Z,37.90
2022-12-08T14:59:27.703Z,37.10
2022-12-08T15:02:26.466Z,37.30
2022-12-08T15:04:59.360Z,36.00
2022-12-08T15:07:52.212Z,35.90
2022-12-08T15:10:36.039Z,34.40
2022-12-08T15:13:12.540Z,33.10
2022-12-08T15:15:49.448Z,34.10
2022-12-08T15:18:29.952Z,36.50
2022-12-08T15:21:08.500Z,39.00
2022-12-08T15:23:50.709Z,38.50
2022-12-08T15:26:26.084Z,37.70
2022-12-08T15:28:56.548Z,39.70
2022-12-08T15:31:27.133Z,41.80
2022-12-08T15:33:57.453Z,50.90
2022-12-08T15:36:27.478Z,52.80
2022-12-08T15:38:57.565Z,68.90
2022-12-08T15:41:27.981Z,55.40
2022-12-08T15:43:58.435Z,54.70
2022-12-08T15:46:28.940Z,50.60
2022-12-08T15:48:59.115Z,50.90
2022-12-08T15:51:31.466Z,48.10
2022-12-08T15:54:01.534Z,44.60
2022-12-08T15:56:34.222Z,43.20
2022-12-08T15:59:03.652Z,46.20
2022-12-08T16:01:34.119Z,44.10
2022-12-08T16:07:21.312Z,47.90
2022-12-08T16:09:49.987Z,41.10
2022-12-08T16:13:34.052Z,44.30
2022-12-08T16:16:00.225Z,43.10
2022-12-08T16:18:32.453Z,38.70
2022-12-08T16:21:12.348Z,36.60
2022-12-08T16:23:53.594Z,36.00
2022-12-08T16:29:20.829Z,35.30
2022-12-08T16:31:52.215Z,33.60
2022-12-08T16:34:22.693Z,34.10
2022-12-08T16:36:52.800Z,37.90
2022-12-08T16:39:22.945Z,35.80
2022-12-08T16:42:13.036Z,38.60
2022-12-08T16:44:44.014Z,43.10
2022-12-08T16:47:14.797Z,53.60
2022-12-08T16:49:45.595Z,46.90
2022-12-08T16:52:18.129Z,41.50
2022-12-08T16:54:48.654Z,41.20
2022-12-08T16:57:19.491Z,34.50
2022-12-08T16:59:48.607Z,50.20
2022-12-08T17:02:18.935Z,36.90
2022-12-08T17:04:49.142Z,36.90
2022-12-08T17:07:19.528Z,33.00
2022-12-08T17:09:49.992Z,35.50
2022-12-08T17:12:20.686Z,35.60
2022-12-08T17:14:51.420Z,34.60
2022-12-08T17:17:21.200Z,32.20
2022-12-08T17:19:51.199Z,36.20
2022-12-08T17:22:21.685Z,38.80
2022-12-08T17:24:52.582Z,47.70
2022-12-08T17:27:23.064Z,106.50
2022-12-08T17:29:53.349Z,54.30
2022-12-08T17:32:23.394Z,38.00
2022-12-08T17:34:53.617Z,33.80
2022-12-08T17:37:23.606Z,35.30
2022-12-08T17:39:53.709Z,41.60
2022-12-08T17:42:26.403Z,46.80
2022-12-08T17:44:56.526Z,61.80
2022-12-08T17:47:26.832Z,54.60
2022-12-08T17:49:57.060Z,56.90
2022-12-08T17:52:27.736Z,53.40
2022-12-08T17:54:57.922Z,52.70
2022-12-08T17:57:28.014Z,45.30
2022-12-08T17:59:57.084Z,42.30
2022-12-08T18:02:27.309Z,49.90
2022-12-08T18:04:57.093Z,64.70
2022-12-08T18:07:27.216Z,75.50
2022-12-08T18:09:57.387Z,72.20
2022-12-08T18:12:27.526Z,65.90
2022-12-08T18:14:56.617Z,63.00
2022-12-08T18:17:26.647Z,79.60
2022-12-08T18:19:57.127Z,97.50
2022-12-08T18:22:27.518Z,112.10
2022-12-08T18:25:00.664Z,117.60
2022-12-08T18:27:30.681Z,112.60
2022-12-08T18:30:02.381Z,109.50
2022-12-08T18:32:32.431Z,106.70
2022-12-08T18:35:02.711Z,102.30
2022-12-08T18:37:32.358Z,95.50
2022-12-08T18:40:02.609Z,96.70
2022-12-08T18:42:32.865Z,88.40
2022-12-08T18:45:07.545Z,72.90
2022-12-08T18:47:41.100Z,71.00
2022-12-08T18:50:13.121Z,78.50
2022-12-08T18:52:43.762Z,85.40
2022-12-08T18:55:15.039Z,91.20
2022-12-08T18:57:44.700Z,87.70
2022-12-08T19:00:19.065Z,79.60
2022-12-08T19:02:50.000Z,71.30
2022-12-08T19:05:20.844Z,66.20
2022-12-08T19:07:52.614Z,67.10
2022-12-08T19:10:21.742Z,62.40
2022-12-08T19:12:52.898Z,66.90
2022-12-08T19:15:23.225Z,56.90
2022-12-08T19:17:52.099Z,52.40
2022-12-08T19:20:22.163Z,52.10
2022-12-08T19:22:52.161Z,55.00
2022-12-08T19:25:22.479Z,58.80
2022-12-08T19:27:53.019Z,59.20
2022-12-08T19:30:23.123Z,57.40
2022-12-08T19:32:53.146Z,63.00
2022-12-08T19:35:23.231Z,60.80
2022-12-08T19:37:55.229Z,54.40
2022-12-08T19:40:46.378Z,46.40
2022-12-08T19:43:40.462Z,44.60
2022-12-08T19:46:11.910Z,43.10
2022-12-08T19:48:42.703Z,54.40
2022-12-08T19:51:13.260Z,58.60
2022-12-08T19:53:47.535Z,51.30
2022-12-08T19:56:19.324Z,43.10
2022-12-08T19:58:48.215Z,40.50
2022-12-08T20:01:20.322Z,41.40
2022-12-08T20:03:50.676Z,51.00
2022-12-08T20:06:21.344Z,57.10
2022-12-08T20:08:52.801Z,59.30
2022-12-08T20:11:23.993Z,58.80
2022-12-08T20:13:52.893Z,50.10
2022-12-08T20:16:24.635Z,48.30
2022-12-08T20:18:54.672Z,53.10
2022-12-08T20:21:24.859Z,51.80
2022-12-08T20:23:55.222Z,49.50
2022-12-08T20:26:25.792Z,45.00
2022-12-08T20:28:54.673Z,46.20
2022-12-08T20:31:28.067Z,48.50
2022-12-08T20:33:58.657Z,46.80
2022-12-08T20:36:29.449Z,51.20
2022-12-08T20:38:59.554Z,44.70
2022-12-08T20:41:30.456Z,41.80
2022-12-08T20:44:05.651Z,39.70
2022-12-08T20:46:36.137Z,43.70
2022-12-08T20:49:08.789Z,50.30
2022-12-08T20:51:39.239Z,45.80
2022-12-08T20:54:11.503Z,42.90
2022-12-08T20:56:47.929Z,47.60
2022-12-08T20:59:18.395Z,44.60
2022-12-08T21:01:49.671Z,42.20
2022-12-08T21:04:21.311Z,43.20
2022-12-08T21:06:51.550Z,43.70
2022-12-08T21:09:22.003Z,42.80
2022-12-08T21:11:52.577Z,41.60
2022-12-08T21:14:21.692Z,39.40
2022-12-08T21:16:55.111Z,40.60
2022-12-08T21:19:25.465Z,44.80
2022-12-08T21:21:56.142Z,46.90
2022-12-08T21:24:30.380Z,47.20
2022-12-08T21:27:04.861Z,46.60
2022-12-08T21:29:34.925Z,44.20
2022-12-08T21:32:05.233Z,46.60
2022-12-08T21:34:35.840Z,44.10
2022-12-08T21:37:06.469Z,45.80
2022-12-08T21:39:38.284Z,48.00
2022-12-08T21:42:33.712Z,47.40
2022-12-08T21:45:04.575Z,43.90
2022-12-08T21:47:34.133Z,45.00
2022-12-08T21:50:05.707Z,44.10
2022-12-08T21:52:43.995Z,43.10
2022-12-08T21:55:16.362Z,46.00
2022-12-08T21:57:47.119Z,46.40
2022-12-08T22:00:18.171Z,44.90
2022-12-08T22:02:48.466Z,44.10
2022-12-08T22:05:19.003Z,43.20
2022-12-08T22:07:51.376Z,45.40
2022-12-08T22:10:21.787Z,43.80
2022-12-08T22:12:51.994Z,44.60
2022-12-08T22:15:22.128Z,43.50
2022-12-08T22:17:51.295Z,43.10
2022-12-08T22:20:21.676Z,45.50
2022-12-08T22:22:51.244Z,43.30
2022-12-08T22:25:21.474Z,50.30
2022-12-08T22:27:51.697Z,45.80
2022-12-08T22:30:22.113Z,48.00
2022-12-08T22:32:52.990Z,49.50
2022-12-08T22:35:23.247Z,47.20
2022-12-08T22:37:53.533Z,50.30
2022-12-08T22:40:23.757Z,47.10
2022-12-08T22:42:54.237Z,45.30
2022-12-08T22:45:24.758Z,49.20
2022-12-08T22:47:55.065Z,44.40
2022-12-08T22:50:25.103Z,43.30
2022-12-08T22:52:55.142Z,39.90
2022-12-08T22:55:25.350Z,42.20
2022-12-08T22:57:55.882Z,48.80
2022-12-08T23:00:25.048Z,49.00
2022-12-08T23:02:55.280Z,47.30
2022-12-08T23:05:25.502Z,45.90
2022-12-08T23:07:55.736Z,46.80
2022-12-08T23:10:25.902Z,48.00
2022-12-08T23:13:02.178Z,47.40
2022-12-08T23:18:05.009Z,47.10
2022-12-08T23:20:35.321Z,46.40
2022-12-08T23:23:05.846Z,45.80
2022-12-08T23:25:40.983Z,46.70
2022-12-08T23:28:11.425Z,44.10
2022-12-08T23:30:43.080Z,44.80
2022-12-08T23:33:15.361Z,44.90
2022-12-08T23:35:45.805Z,45.20
2022-12-08T23:38:16.412Z,45.80
2022-12-08T23:40:45.459Z,44.70
2022-12-08T23:43:16.465Z,45.10
2022-12-08T23:45:47.619Z,44.20
2022-12-08T23:48:18.090Z,43.20
2022-12-08T23:50:47.102Z,46.60
2022-12-08T23:53:17.593Z,46.00
2022-12-08T23:55:48.053Z,44.10
2022-12-08T23:58:18.290Z,43.20
